AirNav   Pilot Hours Calculator
 
 754 users online  

AK42 Alyeska Resort Heliport
Girdwood, Alaska, USA

GOING TO GIRDWOOD?


FAA INFORMATION EFFECTIVE 02 JANUARY 2020

Location

FAA Identifier: AK42
Lat/Long: 60-58-12.0000N 149-06-05.0000W
60-58.200000N 149-06.083333W
60.9700000,-149.1013889
(estimated)
Elevation: 283 ft. / 86 m (estimated)
From city: 3 miles SSW of GIRDWOOD, AK
Time zone: UTC -9 (UTC -8 during Daylight Saving Time)
Zip code: 99605

Heliport Operations

Heliport use: Private use. Permission required prior to landing
Activation date: 03/2015
Control tower: no
ARTCC: ANCHORAGE CENTER
FSS: KENAI FLIGHT SERVICE STATION [907-283-7211]
Attendance: UNATTND
Wind indicator: yes
Segmented circle: no
Lights: SS-SR

Nearby radio navigation aids

VOR radial/distance  VOR name  Freq  Var
TEDr097/27.6ANCHORAGE VOR/DME113.1518E

 
NDB name  Hdg/Dist  Freq  Var  ID
CAMPBELL LAKE098/30.033816ECMQ -.-. -- --.-

Heliport Services

Runway Information

Helipad H1

Dimensions: 56 x 56 ft. / 17 x 17 m
Surface: mats, in excellent condition
Runway edge lights: PERI
ACTIVATE PERIM 122.9
Traffic pattern: leftleft

Heliport Ownership and Management from official FAA records

Ownership: Privately-owned
Owner: HOTEL ALYSESKA LLC
1000 ARLEBERG AVENUE, PO BOX 249
GIRDWOOD, AK 99587
Phone (907) 754-2131
Manager: BRIAN BURNETT
1000 ARLEBERG AVENUE, PO BOX 249
GIRDWOOD, AK 99587
Phone (907) 754-2536

Additional Remarks

INFORMATION PACKAGE, CONSENT AND RELEASE FORMS AVAILABLE UPON REQUEST FROM ALYESKA RESORT SECURITY DEPARTMENT: 907-754-2131, OR HELIPAD@ALYESKARESORT.COM
SEASONAL HANG GLIDER AND PARASAIL ACTIVITY.
TRAM CABLE 100 FEET AGL RUNS FROM HOTEL ALYESKA TO THE TOP STATION OF THE TRAM.
HELIPAD IS IN CLOSE PROXIMITY TO HOTEL ALYESKA.
NO OPERATIONS OVER HOTEL ALYESKA OR TRAM BASE.
HELIPAD IS IN CLOSE PROXIMITY TO GIRDWOOD AIRPORT AQY.

Instrument Procedures

There are no published instrument procedures at AK42.

Some nearby airports with instrument procedures:

PAFR - Bryant Army Airfield Heliport (24 nm NW)
PAMR - Merrill Field Airport (26 nm NW)
PAED - Elmendorf Air Force Base (27 nm NW)
PANC - Ted Stevens Anchorage International Airport (29 nm NW)
PAAQ - Warren "Bud" Woods Palmer Municipal Airport (37 nm N)
 
Loc | Ops | Rwys | IFR | FBO | Links
Com | Nav | Svcs | Stats | Notes

Crowley
 
Aerial photo
No photo
 
Airport distance calculator
Flying to Alyeska Resort Heliport? Find the distance to fly.

From to AK42

Sunrise and sunset
Times for 19-Jan-2020
 Local
(UTC-9)
 Zulu
(UTC)
Morning civil twilight08:5117:51
Sunrise09:4518:45
Sunset16:2901:29
Evening civil twilight17:2302:23

Current date and time
Zulu (UTC)  19-Jan-2020 11:31:10
Local (UTC-9)  19-Jan-2020 02:31:10
 
METAR
PATO 
13nm SE 
191053Z AUTO VRB03KT 10SM OVC013 M14/M17 A2954 RMK AO2 SLP006 T11391172 TSNO
PAFR 
24nm NW 
191058Z AUTO 00000KT 10SM CLR M24/M27 A2950 RMK AO2 SLP009 T12441270 FZRANO $
PAMR 
26nm NW 
191053Z 08003KT 10SM CLR M23/M26 A2954 RMK AO2 SLP009 T12281261 $
PAED 
26nm NW 
191056Z AUTO 00000KT 10SM CLR M22/M25 A2953 RMK AO2 SLP000 T12251254 $
TAF
PAED 
26nm NW 
181900Z 1819/2001 VRB06KT 9999 SKC QNH2970INS BECMG 1904/1905 VRB06KT 9999 SCT100 QNH2968INS TXM12/1823Z TNM24/1918Z
PANC 
29nm NW 
182059Z 1821/1924 36010KT P6SM SKC FM190300 36006KT P6SM SKC FM191000 VRB04KT P6SM BKN200 FM192000 01005KT P6SM SCT120 OVC180
NOTAMs
Click for the latest NOTAMs
NOTAMs are issued by the DoD/FAA and will open in a separate window not controlled by AirNav.

 

 
 

Would you like to see your business listed on this page?

 If your business provides an interesting product or service to pilots, flight crews, aircraft, or users of the Alyeska Resort Heliport, you should consider listing it here.  To start the listing process, click on the button below
 
Add a business
 

Other Pages about Alyeska Resort Heliport

Update a link
 
Copyright © AirNav, LLC. All rights reserved. Privacy Policy  Contact